createdAt,value
2022-09-04T00:01:01.539Z,17.40
2022-09-04T00:03:40.280Z,17.40
2022-09-04T00:06:13.496Z,17.30
2022-09-04T00:08:43.096Z,17.30
2022-09-04T00:11:12.400Z,17.30
2022-09-04T00:13:42.097Z,17.30
2022-09-04T00:16:12.227Z,17.20
2022-09-04T00:18:46.583Z,17.20
2022-09-04T00:21:33.452Z,17.20
2022-09-04T00:24:05.799Z,17.20
2022-09-04T00:26:50.237Z,17.00
2022-09-04T00:29:36.307Z,17.00
2022-09-04T00:32:23.665Z,17.00
2022-09-04T00:35:05.547Z,16.90
2022-09-04T00:37:38.328Z,16.90
2022-09-04T00:40:20.707Z,16.80
2022-09-04T00:42:47.274Z,16.80
2022-09-04T00:45:27.597Z,16.80
2022-09-04T00:48:00.443Z,16.80
2022-09-04T00:50:31.851Z,16.80
2022-09-04T00:53:17.792Z,16.80
2022-09-04T00:55:52.542Z,16.70
2022-09-04T00:58:20.593Z,16.50
2022-09-04T01:00:50.103Z,16.40
2022-09-04T01:03:22.841Z,16.40
2022-09-04T01:05:52.385Z,16.40
2022-09-04T01:08:28.054Z,16.40
2022-09-04T01:10:54.662Z,16.40
2022-09-04T01:13:33.821Z,16.50
2022-09-04T01:16:07.626Z,16.40
2022-09-04T01:18:48.600Z,16.50
2022-09-04T01:21:15.216Z,16.40
2022-09-04T01:23:47.638Z,16.40
2022-09-04T01:26:36.049Z,16.40
2022-09-04T01:29:23.841Z,16.30
2022-09-04T01:31:54.510Z,16.30
2022-09-04T01:34:21.130Z,16.30
2022-09-04T01:36:56.820Z,16.30
2022-09-04T01:39:24.870Z,16.20
2022-09-04T01:41:56.751Z,16.20
2022-09-04T01:44:23.529Z,16.20
2022-09-04T01:46:58.077Z,16.20
2022-09-04T01:49:53.957Z,16.20
2022-09-04T01:52:23.681Z,16.10
2022-09-04T01:54:58.203Z,16.10
2022-09-04T01:57:43.713Z,16.10
2022-09-04T02:00:12.745Z,16.10
2022-09-04T02:02:39.298Z,16.00
2022-09-04T02:05:21.138Z,16.00
2022-09-04T02:07:49.447Z,16.00
2022-09-04T02:10:22.169Z,16.00
2022-09-04T02:12:54.704Z,16.00
2022-09-04T02:15:33.511Z,16.00
2022-09-04T02:18:11.590Z,16.10
2022-09-04T02:20:44.317Z,16.10
2022-09-04T02:23:29.982Z,16.00
2022-09-04T02:26:02.761Z,16.00
2022-09-04T02:28:45.391Z,15.90
2022-09-04T02:31:33.983Z,15.90
2022-09-04T02:34:00.590Z,15.80
2022-09-04T02:36:53.443Z,15.80
2022-09-04T02:39:26.859Z,15.70
2022-09-04T02:42:00.534Z,15.70
2022-09-04T02:44:39.025Z,15.60
2022-09-04T02:47:29.036Z,15.50
2022-09-04T02:49:55.607Z,15.60
2022-09-04T02:52:33.404Z,15.50
2022-09-04T02:54:59.979Z,15.50
2022-09-04T02:57:38.244Z,15.50
2022-09-04T03:00:19.945Z,15.50
2022-09-04T03:03:02.289Z,15.50
2022-09-04T03:05:42.024Z,15.50
2022-09-04T03:08:15.556Z,15.50
2022-09-04T03:10:51.318Z,15.40
2022-09-04T03:13:26.731Z,15.40
2022-09-04T03:16:01.422Z,15.40
2022-09-04T03:18:32.828Z,15.40
2022-09-04T03:21:14.574Z,15.30
2022-09-04T03:23:49.346Z,15.30
2022-09-04T03:26:34.405Z,15.30
2022-09-04T03:29:01.069Z,15.30
2022-09-04T03:31:39.870Z,15.30
2022-09-04T03:34:06.445Z,15.30
2022-09-04T03:36:41.297Z,15.30
2022-09-04T03:39:22.189Z,15.30
2022-09-04T03:42:12.053Z,15.10
2022-09-04T03:44:38.605Z,15.00
2022-09-04T03:47:05.159Z,15.00
2022-09-04T03:49:38.590Z,15.00
2022-09-04T03:52:11.182Z,15.00
2022-09-04T03:54:43.903Z,14.90
2022-09-04T03:57:19.691Z,14.80
2022-09-04T03:59:52.252Z,14.90
2022-09-04T04:02:27.964Z,14.90
2022-09-04T04:05:14.899Z,14.90
2022-09-04T04:08:00.362Z,14.90
2022-09-04T04:10:33.233Z,14.90
2022-09-04T04:13:12.274Z,14.90
2022-09-04T04:16:03.134Z,14.80
2022-09-04T04:18:30.687Z,14.90
2022-09-04T04:21:02.535Z,14.80
2022-09-04T04:23:29.289Z,14.90
2022-09-04T04:26:10.438Z,14.80
2022-09-04T04:28:47.902Z,14.80
2022-09-04T04:31:14.557Z,14.80
2022-09-04T04:34:02.001Z,14.70
2022-09-04T04:36:42.743Z,14.60
2022-09-04T04:39:16.550Z,14.50
2022-09-04T04:42:04.346Z,14.60
2022-09-04T04:44:59.962Z,14.60
2022-09-04T04:47:45.291Z,14.70
2022-09-04T04:50:17.985Z,14.70
2022-09-04T04:52:44.519Z,14.80
2022-09-04T04:55:11.076Z,14.80
2022-09-04T04:57:40.620Z,14.80
2022-09-04T05:00:27.775Z,14.80
2022-09-04T05:03:07.909Z,14.80
2022-09-04T05:05:54.011Z,14.80
2022-09-04T05:08:26.531Z,14.90
2022-09-04T05:11:28.593Z,14.90
2022-09-04T05:14:04.279Z,14.90
2022-09-04T05:17:03.439Z,14.80
2022-09-04T05:19:33.349Z,14.80
2022-09-04T05:22:05.660Z,14.70
2022-09-04T05:24:44.197Z,14.70
2022-09-04T05:27:12.292Z,14.70
2022-09-04T05:29:51.325Z,14.70
2022-09-04T05:32:23.310Z,14.70
2022-09-04T05:34:49.855Z,14.80
2022-09-04T05:37:19.557Z,14.90
2022-09-04T05:39:46.132Z,14.90
2022-09-04T05:42:31.902Z,15.00
2022-09-04T05:45:21.377Z,15.00
2022-09-04T05:47:54.005Z,15.00
2022-09-04T05:50:35.926Z,14.90
2022-09-04T05:53:05.473Z,14.80
2022-09-04T05:55:34.911Z,14.80
2022-09-04T05:58:04.494Z,14.80
2022-09-04T06:00:42.827Z,14.80
2022-09-04T06:03:22.091Z,14.90
2022-09-04T06:06:00.824Z,14.90
2022-09-04T06:08:48.429Z,15.00
2022-09-04T06:11:26.898Z,15.10
2022-09-04T06:14:02.629Z,15.10
2022-09-04T06:16:58.367Z,15.10
2022-09-04T06:19:37.493Z,15.10
2022-09-04T06:22:23.918Z,15.10
2022-09-04T06:24:53.553Z,15.10
2022-09-04T06:27:34.589Z,15.10
2022-09-04T06:30:02.201Z,15.20
2022-09-04T06:32:49.723Z,15.10
2022-09-04T06:35:41.752Z,15.30
2022-09-04T06:38:28.128Z,15.40
2022-09-04T06:40:55.003Z,15.50
2022-09-04T06:43:29.640Z,15.60
2022-09-04T06:46:16.371Z,15.70
2022-09-04T06:49:01.785Z,15.80
2022-09-04T06:51:52.280Z,15.90
2022-09-04T06:54:32.273Z,15.90
2022-09-04T06:57:11.051Z,16.10
2022-09-04T06:59:56.501Z,16.30
2022-09-04T07:02:41.595Z,16.40
2022-09-04T07:05:12.477Z,16.40
2022-09-04T07:07:52.485Z,16.40
2022-09-04T07:10:35.419Z,16.40
2022-09-04T07:13:23.472Z,16.50
2022-09-04T07:15:58.928Z,16.50
2022-09-04T07:18:44.361Z,16.50
2022-09-04T07:21:15.775Z,16.60
2022-09-04T07:23:44.958Z,16.70
2022-09-04T07:26:19.239Z,16.70
2022-09-04T07:28:59.484Z,16.60
2022-09-04T07:31:48.961Z,16.60
2022-09-04T07:34:22.576Z,16.60
2022-09-04T07:36:56.042Z,16.50
2022-09-04T07:39:44.511Z,16.60
2022-09-04T07:42:17.951Z,16.70
2022-09-04T07:45:03.303Z,16.80
2022-09-04T07:47:46.940Z,16.80
2022-09-04T07:50:18.261Z,16.80
2022-09-04T07:52:50.258Z,16.80
2022-09-04T07:55:35.168Z,16.80
2022-09-04T07:58:18.672Z,17.00
2022-09-04T08:01:04.285Z,17.00
2022-09-04T08:03:31.488Z,17.10
2022-09-04T08:06:14.055Z,17.20
2022-09-04T08:09:06.313Z,17.20
2022-09-04T08:11:45.484Z,17.30
2022-09-04T08:14:17.122Z,17.30
2022-09-04T08:16:50.425Z,17.30
2022-09-04T08:19:29.148Z,17.30
2022-09-04T08:21:57.010Z,17.40
2022-09-04T08:24:32.778Z,17.40
2022-09-04T08:27:03.084Z,17.50
2022-09-04T08:29:39.781Z,17.60
2022-09-04T08:32:09.455Z,17.70
2022-09-04T08:34:46.160Z,17.80
2022-09-04T08:37:33.414Z,17.80
2022-09-04T08:40:15.458Z,17.90
2022-09-04T08:42:47.384Z,17.90
2022-09-04T08:45:19.910Z,17.90
2022-09-04T08:47:52.740Z,18.00
2022-09-04T08:50:27.268Z,18.10
2022-09-04T08:52:53.804Z,18.10
2022-09-04T08:55:26.149Z,18.20
2022-09-04T08:57:58.959Z,18.30
2022-09-04T09:00:28.927Z,18.40
2022-09-04T09:03:04.804Z,18.50
2022-09-04T09:05:31.366Z,18.60
2022-09-04T09:08:16.663Z,18.60
2022-09-04T09:11:02.109Z,18.80
2022-09-04T09:13:31.747Z,18.90
2022-09-04T09:16:10.511Z,19.00
2022-09-04T09:18:55.440Z,19.20
2022-09-04T09:21:25.099Z,19.30
2022-09-04T09:23:54.543Z,19.40
2022-09-04T09:26:29.461Z,19.50
2022-09-04T09:29:13.332Z,19.60
2022-09-04T09:31:48.971Z,19.70
2022-09-04T09:34:34.445Z,19.70
2022-09-04T09:37:19.463Z,19.80
2022-09-04T09:39:46.085Z,19.90
2022-09-04T09:42:21.585Z,20.00
2022-09-04T09:44:48.146Z,20.10
2022-09-04T09:47:33.507Z,20.20
2022-09-04T09:50:02.480Z,20.20
2022-09-04T09:52:31.266Z,20.30
2022-09-04T09:55:17.163Z,20.40
2022-09-04T09:58:02.291Z,20.40
2022-09-04T10:00:36.603Z,20.50
2022-09-04T10:03:24.423Z,20.60
2022-09-04T10:06:01.769Z,20.80
2022-09-04T10:08:37.137Z,20.80
2022-09-04T10:11:10.145Z,20.90
2022-09-04T10:13:39.889Z,21.10
2022-09-04T10:16:15.433Z,21.20
2022-09-04T10:18:45.023Z,21.30
2022-09-04T10:21:30.231Z,21.30
2022-09-04T10:24:11.861Z,21.40
2022-09-04T10:26:57.274Z,21.40
2022-09-04T10:29:42.357Z,21.50
2022-09-04T10:32:24.111Z,21.70
2022-09-04T10:34:55.413Z,21.70
2022-09-04T10:37:24.420Z,21.80
2022-09-04T10:40:12.625Z,21.90
2022-09-04T10:43:09.635Z,22.00
2022-09-04T10:45:42.789Z,22.00
2022-09-04T10:48:15.317Z,22.10
2022-09-04T10:51:01.800Z,22.20
2022-09-04T10:53:54.673Z,22.30
2022-09-04T10:56:22.082Z,22.30
2022-09-04T10:58:50.930Z,22.40
2022-09-04T11:01:38.846Z,22.40
2022-09-04T11:04:27.106Z,22.60
2022-09-04T11:07:02.606Z,22.70
2022-09-04T11:12:21.216Z,22.90
2022-09-04T11:14:49.732Z,23.00
2022-09-04T11:17:30.417Z,23.00
2022-09-04T11:20:26.952Z,23.10
2022-09-04T11:22:59.386Z,23.20
2022-09-04T11:25:26.050Z,23.30
2022-09-04T11:28:05.026Z,23.30
2022-09-04T11:30:52.171Z,23.40
2022-09-04T11:33:38.290Z,23.50
2022-09-04T11:36:11.567Z,23.60
2022-09-04T11:38:56.557Z,23.70
2022-09-04T11:41:24.563Z,23.80
2022-09-04T11:44:00.382Z,23.80
2022-09-04T11:46:30.101Z,23.90
2022-09-04T11:49:11.148Z,24.10
2022-09-04T11:51:57.048Z,24.10
2022-09-04T11:54:35.867Z,24.10
2022-09-04T11:57:17.595Z,24.20
2022-09-04T12:00:12.699Z,24.30
2022-09-04T12:02:45.528Z,24.40
2022-09-04T12:05:23.153Z,24.50
2022-09-04T12:07:59.388Z,24.50
2022-09-04T12:10:38.216Z,24.60
2022-09-04T12:13:15.201Z,24.70
2022-09-04T12:16:06.881Z,24.60
2022-09-04T12:18:44.696Z,24.70
2022-09-04T12:21:41.011Z,24.80
2022-09-04T12:24:13.953Z,24.80
2022-09-04T12:26:52.156Z,24.80
2022-09-04T12:29:38.699Z,24.70
2022-09-04T12:32:15.885Z,24.80
2022-09-04T12:34:45.557Z,24.80
2022-09-04T12:37:24.278Z,24.70
2022-09-04T12:39:57.068Z,24.60
2022-09-04T12:42:32.546Z,24.60
2022-09-04T12:45:17.362Z,24.60
2022-09-04T12:47:58.611Z,24.80
2022-09-04T12:50:45.352Z,24.90
2022-09-04T12:53:14.149Z,25.00
2022-09-04T12:55:49.962Z,25.10
2022-09-04T12:58:33.343Z,25.20
2022-09-04T13:01:08.444Z,25.20
2022-09-04T13:03:40.095Z,25.30
2022-09-04T13:06:06.670Z,25.40
2022-09-04T13:08:36.485Z,25.40
2022-09-04T13:11:13.537Z,25.50
2022-09-04T13:13:59.417Z,25.60
2022-09-04T13:16:29.421Z,25.50
2022-09-04T13:19:00.236Z,25.50
2022-09-04T13:21:26.874Z,25.50
2022-09-04T13:23:57.252Z,25.50
2022-09-04T13:26:33.851Z,25.50
2022-09-04T13:29:16.311Z,25.50
2022-09-04T13:31:43.698Z,25.40
2022-09-04T13:34:20.894Z,25.40
2022-09-04T13:36:53.833Z,25.40
2022-09-04T13:39:30.885Z,25.50
2022-09-04T13:42:25.490Z,25.50
2022-09-04T13:45:01.967Z,25.50
2022-09-04T13:47:44.975Z,25.50
2022-09-04T13:50:25.702Z,25.60
2022-09-04T13:52:55.666Z,25.60
2022-09-04T13:55:27.155Z,25.80
2022-09-04T13:58:11.958Z,25.70
2022-09-04T14:00:46.157Z,25.80
2022-09-04T14:03:18.092Z,25.80
2022-09-04T14:05:45.094Z,25.80
2022-09-04T14:08:14.345Z,25.80
2022-09-04T14:10:44.212Z,25.80
2022-09-04T14:13:28.357Z,25.90
2022-09-04T14:16:01.810Z,25.90
2022-09-04T14:18:28.574Z,25.90
2022-09-04T14:21:01.260Z,25.90
2022-09-04T14:23:47.156Z,25.90
2022-09-04T14:26:17.029Z,26.00
2022-09-04T14:28:51.853Z,26.00
2022-09-04T14:31:20.747Z,26.00
2022-09-04T14:33:51.179Z,26.10
2022-09-04T14:36:18.438Z,26.10
2022-09-04T14:38:51.714Z,26.10
2022-09-04T14:41:36.703Z,26.20
2022-09-04T14:44:06.805Z,26.20
2022-09-04T14:46:38.172Z,26.20
2022-09-04T14:49:06.874Z,26.20
2022-09-04T14:51:39.713Z,26.20
2022-09-04T14:54:07.270Z,26.20
2022-09-04T14:56:40.109Z,26.20
2022-09-04T14:59:15.976Z,26.30
2022-09-04T15:02:01.213Z,26.30
2022-09-04T15:04:46.255Z,26.30
2022-09-04T15:07:25.001Z,26.30
2022-09-04T15:09:54.678Z,26.30
2022-09-04T15:12:30.966Z,26.20
2022-09-04T15:15:04.698Z,26.20
2022-09-04T15:17:34.895Z,26.20
2022-09-04T15:20:06.526Z,26.10
2022-09-04T15:22:42.045Z,26.10
2022-09-04T15:25:17.775Z,26.10
2022-09-04T15:27:59.453Z,26.10
2022-09-04T15:30:38.751Z,26.10
2022-09-04T15:33:11.139Z,26.00
2022-09-04T15:35:39.406Z,26.00
2022-09-04T15:38:20.979Z,26.00
2022-09-04T15:41:16.572Z,26.00
2022-09-04T15:43:48.252Z,26.00
2022-09-04T15:46:17.968Z,25.90
2022-09-04T15:48:53.394Z,25.90
2022-09-04T15:51:38.701Z,25.90
2022-09-04T15:54:11.801Z,25.90
2022-09-04T15:56:57.727Z,25.90
2022-09-04T15:59:24.291Z,25.90
2022-09-04T16:02:00.414Z,25.90
2022-09-04T16:04:43.847Z,25.90
2022-09-04T16:07:20.136Z,25.90
2022-09-04T16:09:55.589Z,25.90
2022-09-04T16:12:24.330Z,25.90
2022-09-04T16:14:59.945Z,25.80
2022-09-04T16:17:29.823Z,25.80
2022-09-04T16:20:08.851Z,25.70
2022-09-04T16:22:55.143Z,25.80
2022-09-04T16:25:27.893Z,25.70
2022-09-04T16:27:57.094Z,25.70
2022-09-04T16:30:32.917Z,25.70
2022-09-04T16:33:02.239Z,25.70
2022-09-04T16:35:33.078Z,25.70
2022-09-04T16:38:05.778Z,25.70
2022-09-04T16:40:41.318Z,25.60
2022-09-04T16:43:19.502Z,25.60
2022-09-04T16:46:07.710Z,25.50
2022-09-04T16:48:37.224Z,25.50
2022-09-04T16:51:40.264Z,25.50
2022-09-04T16:54:11.244Z,25.50
2022-09-04T16:56:37.815Z,25.50
2022-09-04T16:59:10.389Z,25.50
2022-09-04T17:01:49.279Z,25.50
2022-09-04T17:04:20.937Z,25.40
2022-09-04T17:06:54.129Z,25.40
2022-09-04T17:09:24.414Z,25.40
2022-09-04T17:11:55.988Z,25.30
2022-09-04T17:14:28.342Z,25.30
2022-09-04T17:17:30.213Z,25.20
2022-09-04T17:20:02.611Z,25.20
2022-09-04T17:28:55.171Z,25.20
2022-09-04T17:29:00.776Z,25.10
2022-09-04T17:29:10.935Z,25.10
2022-09-04T17:31:05.483Z,25.10
2022-09-04T17:38:49.287Z,25.10
2022-09-04T17:40:49.400Z,25.00
2022-09-04T17:40:55.089Z,25.00
2022-09-04T17:42:26.913Z,25.00
2022-09-04T17:45:12.359Z,24.90
2022-09-04T17:47:42.814Z,24.90
2022-09-04T17:50:17.861Z,24.80
2022-09-04T17:52:56.482Z,24.80
2022-09-04T17:55:23.967Z,24.80
2022-09-04T17:57:56.408Z,24.70
2022-09-04T18:00:25.038Z,24.60
2022-09-04T18:03:12.957Z,24.60
2022-09-04T18:05:53.600Z,24.50
2022-09-04T18:08:25.115Z,24.50
2022-09-04T18:10:57.768Z,24.50
2022-09-04T18:13:40.008Z,24.40
2022-09-04T18:16:30.865Z,24.40
2022-09-04T18:19:09.632Z,24.40
2022-09-04T18:21:40.982Z,24.30
2022-09-04T18:24:09.932Z,24.30
2022-09-04T18:26:46.857Z,24.30
2022-09-04T18:31:46.461Z,24.20
2022-09-04T18:37:12.023Z,24.20
2022-09-04T18:37:22.651Z,24.10
2022-09-04T18:38:19.478Z,24.00
2022-09-04T18:44:02.214Z,24.00
2022-09-04T18:50:22.702Z,23.90
2022-09-04T18:50:38.071Z,23.80
2022-09-04T18:50:38.688Z,23.80
2022-09-04T18:52:15.688Z,23.70
2022-09-04T18:54:45.977Z,23.70
2022-09-04T18:57:34.025Z,23.70
2022-09-04T19:00:13.641Z,23.60
2022-09-04T19:02:51.466Z,23.60
2022-09-04T19:05:20.964Z,23.50
2022-09-04T19:07:49.151Z,23.50
2022-09-04T19:10:26.482Z,23.40
2022-09-04T19:13:21.754Z,23.30
2022-09-04T19:15:53.571Z,23.30
2022-09-04T19:18:22.186Z,23.30
2022-09-04T19:21:14.126Z,23.30
2022-09-04T19:23:40.981Z,23.20
2022-09-04T19:26:17.691Z,23.10
2022-09-04T19:28:48.812Z,23.00
2022-09-04T19:31:26.496Z,23.00
2022-09-04T19:33:59.581Z,23.00
2022-09-04T19:36:44.929Z,22.90
2022-09-04T19:46:01.736Z,22.90
2022-09-04T19:46:04.666Z,22.90
2022-09-04T19:46:14.682Z,22.80
2022-09-04T19:48:25.663Z,22.80
2022-09-04T19:53:29.901Z,22.70
2022-09-04T19:53:49.914Z,22.70
2022-09-04T19:56:28.286Z,22.60
2022-09-04T19:59:05.432Z,22.50
2022-09-04T20:01:47.087Z,22.40
2022-09-04T20:04:20.110Z,22.30
2022-09-04T20:06:50.867Z,22.30
2022-09-04T20:09:28.538Z,22.20
2022-09-04T20:11:59.009Z,22.20
2022-09-04T20:14:25.616Z,22.20
2022-09-04T20:17:05.892Z,22.10
2022-09-04T20:19:40.096Z,22.10
2022-09-04T20:22:18.052Z,22.10
2022-09-04T20:24:57.124Z,22.00
2022-09-04T20:27:32.851Z,21.90
2022-09-04T20:30:19.201Z,21.90
2022-09-04T20:32:57.594Z,21.80
2022-09-04T20:35:44.421Z,21.80
2022-09-04T20:38:23.022Z,21.70
2022-09-04T20:41:00.621Z,21.70
2022-09-04T20:43:31.734Z,21.70
2022-09-04T20:51:01.812Z,21.60
2022-09-04T20:52:58.599Z,21.50
2022-09-04T20:53:00.394Z,21.50
2022-09-04T20:54:38.801Z,21.40
2022-09-04T21:03:05.279Z,21.40
2022-09-04T21:03:09.734Z,21.30
2022-09-04T21:03:21.971Z,21.30
2022-09-04T21:06:07.226Z,21.20
2022-09-04T21:08:46.363Z,21.20
2022-09-04T21:11:39.344Z,21.10
2022-09-04T21:14:20.532Z,21.00
2022-09-04T21:17:34.615Z,21.00
2022-09-04T21:20:15.298Z,21.00
2022-09-04T21:22:41.864Z,20.90
2022-09-04T21:25:08.438Z,20.90
2022-09-04T21:27:47.820Z,20.80
2022-09-04T21:30:16.827Z,20.80
2022-09-04T21:32:52.540Z,20.70
2022-09-04T21:35:27.218Z,20.70
2022-09-04T21:37:53.738Z,20.70
2022-09-04T21:40:50.368Z,20.70
2022-09-04T21:43:11.056Z,20.70
2022-09-04T21:45:46.785Z,20.60
2022-09-04T21:48:31.855Z,20.60
2022-09-04T21:51:37.552Z,20.60
2022-09-04T21:54:36.041Z,20.50
2022-09-04T22:02:21.634Z,20.50
2022-09-04T22:02:42.825Z,20.40
2022-09-04T22:03:13.616Z,20.40
2022-09-04T22:06:04.034Z,20.40
2022-09-04T22:13:34.109Z,20.30
2022-09-04T22:13:44.166Z,20.20
2022-09-04T22:14:31.713Z,20.20
2022-09-04T22:17:04.512Z,20.10
2022-09-04T22:19:41.010Z,20.00
2022-09-04T22:22:19.152Z,20.10
2022-09-04T22:24:48.245Z,20.10
2022-09-04T22:27:24.779Z,20.00
2022-09-04T22:30:11.605Z,20.00
2022-09-04T22:32:40.386Z,19.90
2022-09-04T22:35:19.928Z,19.90
2022-09-04T22:38:05.121Z,19.90
2022-09-04T22:40:35.785Z,19.80
2022-09-04T22:43:24.628Z,19.80
2022-09-04T22:46:09.687Z,19.80
2022-09-04T22:49:14.872Z,19.70
2022-09-04T22:51:41.513Z,19.60
2022-09-04T22:54:26.186Z,19.60
2022-09-04T22:56:53.495Z,19.60
2022-09-04T22:59:38.174Z,19.50
2022-09-04T23:02:18.886Z,19.50
2022-09-04T23:05:04.117Z,19.40
2022-09-04T23:11:35.924Z,19.30
2022-09-04T23:13:43.008Z,19.30
2022-09-04T23:13:54.384Z,19.30
2022-09-04T23:16:40.945Z,19.30
2022-09-04T23:24:54.872Z,19.20
2022-09-04T23:26:33.995Z,19.20
2022-09-04T23:26:48.839Z,19.20
2022-09-04T23:28:38.675Z,19.10
2022-09-04T23:31:29.204Z,19.10
2022-09-04T23:33:59.342Z,19.00
2022-09-04T23:36:33.506Z,19.00
2022-09-04T23:39:09.648Z,19.00
2022-09-04T23:41:52.762Z,19.00
2022-09-04T23:44:25.946Z,19.00
2022-09-04T23:46:58.492Z,18.90
2022-09-04T23:49:40.266Z,18.90
2022-09-04T23:52:13.999Z,18.90
2022-09-04T23:55:03.269Z,18.80
2022-09-04T23:57:41.925Z,18.80
